sensor_id;sensor_type;location;lat;lon;timestamp;P1;durP1;ratioP1;P2;durP2;ratioP2
27722;SDS011;15123;-37.794;175.246;2023-03-19T00:02:13;12.93;;;2.10;;
27722;SDS011;15123;-37.794;175.246;2023-03-19T00:04:45;10.45;;;1.70;;
27722;SDS011;15123;-37.794;175.246;2023-03-19T00:07:17;9.38;;;1.70;;
27722;SDS011;15123;-37.794;175.246;2023-03-19T00:09:48;10.82;;;2.00;;
27722;SDS011;15123;-37.794;175.246;2023-03-19T00:14:51;9.60;;;1.70;;
27722;SDS011;15123;-37.794;175.246;2023-03-19T00:17:22;12.68;;;1.65;;
27722;SDS011;15123;-37.794;175.246;2023-03-19T00:22:25;9.38;;;1.45;;
27722;SDS011;15123;-37.794;175.246;2023-03-19T00:24:56;8.40;;;1.48;;
27722;SDS011;15123;-37.794;175.246;2023-03-19T00:27:28;9.88;;;1.45;;
27722;SDS011;15123;-37.794;175.246;2023-03-19T00:30:00;9.05;;;1.50;;
27722;SDS011;15123;-37.794;175.246;2023-03-19T00:32:31;8.50;;;1.50;;
27722;SDS011;15123;-37.794;175.246;2023-03-19T00:35:04;9.25;;;1.42;;
27722;SDS011;15123;-37.794;175.246;2023-03-19T00:37:39;9.77;;;1.60;;
27722;SDS011;15123;-37.794;175.246;2023-03-19T00:40:11;8.98;;;1.55;;
27722;SDS011;15123;-37.794;175.246;2023-03-19T00:42:42;9.40;;;2.10;;
27722;SDS011;15123;-37.794;175.246;2023-03-19T00:45:14;11.77;;;1.90;;
27722;SDS011;15123;-37.794;175.246;2023-03-19T00:47:46;10.20;;;1.60;;
27722;SDS011;15123;-37.794;175.246;2023-03-19T00:50:17;11.25;;;1.90;;
27722;SDS011;15123;-37.794;175.246;2023-03-19T00:55:21;8.57;;;1.60;;
27722;SDS011;15123;-37.794;175.246;2023-03-19T00:57:54;9.23;;;1.70;;
27722;SDS011;15123;-37.794;175.246;2023-03-19T01:00:26;10.43;;;1.88;;
27722;SDS011;15123;-37.794;175.246;2023-03-19T01:05:29;8.52;;;1.40;;
27722;SDS011;15123;-37.794;175.246;2023-03-19T01:08:01;8.75;;;1.65;;
27722;SDS011;15123;-37.794;175.246;2023-03-19T01:10:33;7.95;;;1.48;;
27722;SDS011;15123;-37.794;175.246;2023-03-19T01:13:04;9.02;;;1.52;;
27722;SDS011;15123;-37.794;175.246;2023-03-19T01:15:37;10.15;;;1.50;;
27722;SDS011;15123;-37.794;175.246;2023-03-19T01:18:10;9.38;;;1.75;;
27722;SDS011;15123;-37.794;175.246;2023-03-19T01:20:42;8.32;;;1.45;;
27722;SDS011;15123;-37.794;175.246;2023-03-19T01:23:13;8.55;;;1.52;;
27722;SDS011;15123;-37.794;175.246;2023-03-19T01:25:45;10.45;;;1.48;;
27722;SDS011;15123;-37.794;175.246;2023-03-19T01:30:47;9.35;;;1.50;;
27722;SDS011;15123;-37.794;175.246;2023-03-19T01:33:41;9.55;;;1.70;;
27722;SDS011;15123;-37.794;175.246;2023-03-19T01:36:30;11.43;;;1.80;;
27722;SDS011;15123;-37.794;175.246;2023-03-19T01:39:04;12.75;;;1.65;;
27722;SDS011;15123;-37.794;175.246;2023-03-19T01:41:35;10.40;;;1.73;;
27722;SDS011;15123;-37.794;175.246;2023-03-19T01:44:35;9.13;;;1.67;;
27722;SDS011;15123;-37.794;175.246;2023-03-19T01:47:33;10.73;;;1.40;;
27722;SDS011;15123;-37.794;175.246;2023-03-19T01:50:26;7.28;;;1.33;;
27722;SDS011;15123;-37.794;175.246;2023-03-19T01:53:34;10.60;;;1.55;;
27722;SDS011;15123;-37.794;175.246;2023-03-19T01:56:36;8.90;;;1.20;;
27722;SDS011;15123;-37.794;175.246;2023-03-19T01:59:42;8.80;;;1.48;;
27722;SDS011;15123;-37.794;175.246;2023-03-19T02:05:13;8.02;;;1.30;;
27722;SDS011;15123;-37.794;175.246;2023-03-19T02:08:00;7.93;;;1.60;;
27722;SDS011;15123;-37.794;175.246;2023-03-19T02:10:34;8.25;;;1.38;;
27722;SDS011;15123;-37.794;175.246;2023-03-19T02:13:06;8.45;;;1.30;;
27722;SDS011;15123;-37.794;175.246;2023-03-19T02:18:08;9.55;;;1.63;;
27722;SDS011;15123;-37.794;175.246;2023-03-19T02:26:44;8.98;;;1.60;;
27722;SDS011;15123;-37.794;175.246;2023-03-19T02:29:16;8.85;;;1.55;;
27722;SDS011;15123;-37.794;175.246;2023-03-19T02:31:48;8.98;;;1.42;;
27722;SDS011;15123;-37.794;175.246;2023-03-19T02:36:56;8.55;;;1.40;;
27722;SDS011;15123;-37.794;175.246;2023-03-19T02:42:21;9.75;;;1.65;;
27722;SDS011;15123;-37.794;175.246;2023-03-19T02:44:52;8.40;;;1.40;;
27722;SDS011;15123;-37.794;175.246;2023-03-19T02:47:25;10.00;;;1.58;;
27722;SDS011;15123;-37.794;175.246;2023-03-19T02:49:56;8.85;;;1.30;;
27722;SDS011;15123;-37.794;175.246;2023-03-19T02:52:28;8.60;;;1.70;;
27722;SDS011;15123;-37.794;175.246;2023-03-19T02:57:32;9.00;;;1.50;;
27722;SDS011;15123;-37.794;175.246;2023-03-19T03:00:04;7.40;;;1.48;;
27722;SDS011;15123;-37.794;175.246;2023-03-19T03:02:36;7.18;;;1.45;;
27722;SDS011;15123;-37.794;175.246;2023-03-19T03:05:08;8.23;;;1.50;;
27722;SDS011;15123;-37.794;175.246;2023-03-19T03:07:40;8.10;;;1.58;;
27722;SDS011;15123;-37.794;175.246;2023-03-19T03:10:13;8.23;;;1.30;;
27722;SDS011;15123;-37.794;175.246;2023-03-19T03:12:45;7.93;;;1.25;;
27722;SDS011;15123;-37.794;175.246;2023-03-19T03:15:17;7.15;;;1.33;;
27722;SDS011;15123;-37.794;175.246;2023-03-19T03:17:48;6.63;;;1.20;;
27722;SDS011;15123;-37.794;175.246;2023-03-19T03:20:20;6.78;;;1.30;;
27722;SDS011;15123;-37.794;175.246;2023-03-19T03:22:52;8.05;;;1.30;;
27722;SDS011;15123;-37.794;175.246;2023-03-19T03:25:24;7.70;;;1.10;;
27722;SDS011;15123;-37.794;175.246;2023-03-19T03:27:56;8.02;;;1.30;;
27722;SDS011;15123;-37.794;175.246;2023-03-19T03:30:28;9.55;;;1.40;;
27722;SDS011;15123;-37.794;175.246;2023-03-19T03:33:00;11.23;;;1.73;;
27722;SDS011;15123;-37.794;175.246;2023-03-19T03:35:32;13.25;;;2.42;;
27722;SDS011;15123;-37.794;175.246;2023-03-19T03:40:34;9.50;;;1.50;;
27722;SDS011;15123;-37.794;175.246;2023-03-19T03:43:06;12.45;;;1.67;;
27722;SDS011;15123;-37.794;175.246;2023-03-19T03:45:39;10.52;;;1.58;;
27722;SDS011;15123;-37.794;175.246;2023-03-19T03:50:41;9.90;;;1.83;;
27722;SDS011;15123;-37.794;175.246;2023-03-19T03:53:16;9.23;;;1.30;;
27722;SDS011;15123;-37.794;175.246;2023-03-19T03:58:21;7.70;;;1.20;;
27722;SDS011;15123;-37.794;175.246;2023-03-19T04:00:54;9.70;;;1.60;;
27722;SDS011;15123;-37.794;175.246;2023-03-19T04:03:26;9.70;;;1.50;;
27722;SDS011;15123;-37.794;175.246;2023-03-19T04:08:28;8.97;;;1.50;;
27722;SDS011;15123;-37.794;175.246;2023-03-19T04:13:30;11.70;;;1.55;;
27722;SDS011;15123;-37.794;175.246;2023-03-19T04:16:07;8.35;;;1.30;;
27722;SDS011;15123;-37.794;175.246;2023-03-19T04:18:40;9.68;;;1.30;;
27722;SDS011;15123;-37.794;175.246;2023-03-19T04:21:12;8.43;;;1.27;;
27722;SDS011;15123;-37.794;175.246;2023-03-19T04:23:44;5.57;;;1.10;;
27722;SDS011;15123;-37.794;175.246;2023-03-19T04:26:16;10.32;;;1.50;;
27722;SDS011;15123;-37.794;175.246;2023-03-19T04:31:18;9.77;;;1.20;;
27722;SDS011;15123;-37.794;175.246;2023-03-19T04:36:20;10.23;;;1.70;;
27722;SDS011;15123;-37.794;175.246;2023-03-19T04:38:52;8.75;;;1.38;;
27722;SDS011;15123;-37.794;175.246;2023-03-19T04:41:25;9.82;;;1.60;;
27722;SDS011;15123;-37.794;175.246;2023-03-19T04:44:10;11.57;;;1.30;;
27722;SDS011;15123;-37.794;175.246;2023-03-19T04:46:42;9.65;;;1.30;;
27722;SDS011;15123;-37.794;175.246;2023-03-19T04:49:18;10.00;;;1.50;;
27722;SDS011;15123;-37.794;175.246;2023-03-19T04:51:51;11.45;;;1.50;;
27722;SDS011;15123;-37.794;175.246;2023-03-19T04:56:53;10.63;;;1.40;;
27722;SDS011;15123;-37.794;175.246;2023-03-19T04:59:28;8.10;;;1.35;;
27722;SDS011;15123;-37.794;175.246;2023-03-19T05:02:00;7.65;;;1.10;;
27722;SDS011;15123;-37.794;175.246;2023-03-19T05:04:34;6.40;;;1.02;;
27722;SDS011;15123;-37.794;175.246;2023-03-19T05:07:09;10.35;;;1.40;;
27722;SDS011;15123;-37.794;175.246;2023-03-19T05:09:42;10.10;;;1.30;;
27722;SDS011;15123;-37.794;175.246;2023-03-19T05:12:15;9.63;;;1.48;;
27722;SDS011;15123;-37.794;175.246;2023-03-19T05:14:50;9.10;;;1.42;;
27722;SDS011;15123;-37.794;175.246;2023-03-19T05:17:29;8.82;;;1.40;;
27722;SDS011;15123;-37.794;175.246;2023-03-19T05:20:21;10.73;;;1.30;;
27722;SDS011;15123;-37.794;175.246;2023-03-19T05:23:02;12.23;;;1.58;;
27722;SDS011;15123;-37.794;175.246;2023-03-19T05:25:52;8.52;;;1.25;;
27722;SDS011;15123;-37.794;175.246;2023-03-19T05:28:45;6.90;;;1.33;;
27722;SDS011;15123;-37.794;175.246;2023-03-19T05:31:21;9.63;;;1.40;;
27722;SDS011;15123;-37.794;175.246;2023-03-19T05:33:54;8.13;;;1.40;;
27722;SDS011;15123;-37.794;175.246;2023-03-19T05:36:29;9.32;;;1.20;;
27722;SDS011;15123;-37.794;175.246;2023-03-19T05:39:19;9.75;;;1.30;;
27722;SDS011;15123;-37.794;175.246;2023-03-19T05:41:50;12.02;;;1.23;;
27722;SDS011;15123;-37.794;175.246;2023-03-19T05:44:27;9.82;;;1.60;;
27722;SDS011;15123;-37.794;175.246;2023-03-19T05:47:21;7.85;;;1.33;;
27722;SDS011;15123;-37.794;175.246;2023-03-19T05:49:55;9.15;;;1.40;;
27722;SDS011;15123;-37.794;175.246;2023-03-19T05:52:29;12.27;;;1.45;;
27722;SDS011;15123;-37.794;175.246;2023-03-19T05:55:00;10.50;;;1.27;;
27722;SDS011;15123;-37.794;175.246;2023-03-19T05:57:39;11.10;;;1.23;;
27722;SDS011;15123;-37.794;175.246;2023-03-19T06:00:17;9.27;;;1.10;;
27722;SDS011;15123;-37.794;175.246;2023-03-19T06:02:49;9.98;;;1.20;;
27722;SDS011;15123;-37.794;175.246;2023-03-19T06:05:27;11.55;;;1.60;;
27722;SDS011;15123;-37.794;175.246;2023-03-19T06:08:06;10.10;;;1.20;;
27722;SDS011;15123;-37.794;175.246;2023-03-19T06:10:55;10.80;;;1.40;;
27722;SDS011;15123;-37.794;175.246;2023-03-19T06:13:28;11.07;;;1.30;;
27722;SDS011;15123;-37.794;175.246;2023-03-19T06:16:03;13.20;;;1.52;;
27722;SDS011;15123;-37.794;175.246;2023-03-19T06:18:39;10.15;;;1.60;;
27722;SDS011;15123;-37.794;175.246;2023-03-19T06:21:13;11.15;;;1.45;;
27722;SDS011;15123;-37.794;175.246;2023-03-19T06:23:45;12.93;;;1.58;;
27722;SDS011;15123;-37.794;175.246;2023-03-19T06:26:19;10.38;;;1.30;;
27722;SDS011;15123;-37.794;175.246;2023-03-19T06:28:54;8.65;;;1.20;;
27722;SDS011;15123;-37.794;175.246;2023-03-19T06:31:26;9.55;;;1.40;;
27722;SDS011;15123;-37.794;175.246;2023-03-19T06:34:14;9.63;;;1.70;;
27722;SDS011;15123;-37.794;175.246;2023-03-19T06:36:46;12.00;;;1.83;;
27722;SDS011;15123;-37.794;175.246;2023-03-19T06:39:18;11.18;;;1.75;;
27722;SDS011;15123;-37.794;175.246;2023-03-19T06:41:49;11.80;;;1.60;;
27722;SDS011;15123;-37.794;175.246;2023-03-19T06:44:24;9.18;;;1.30;;
27722;SDS011;15123;-37.794;175.246;2023-03-19T06:49:26;13.57;;;1.70;;
27722;SDS011;15123;-37.794;175.246;2023-03-19T06:54:28;11.02;;;1.75;;
27722;SDS011;15123;-37.794;175.246;2023-03-19T06:57:00;8.40;;;1.50;;
27722;SDS011;15123;-37.794;175.246;2023-03-19T06:59:31;10.63;;;1.50;;
27722;SDS011;15123;-37.794;175.246;2023-03-19T07:02:03;13.15;;;1.98;;
27722;SDS011;15123;-37.794;175.246;2023-03-19T07:04:37;13.35;;;2.10;;
27722;SDS011;15123;-37.794;175.246;2023-03-19T07:07:08;11.00;;;1.60;;
27722;SDS011;15123;-37.794;175.246;2023-03-19T07:09:39;12.75;;;2.00;;
27722;SDS011;15123;-37.794;175.246;2023-03-19T07:12:11;11.27;;;1.73;;
27722;SDS011;15123;-37.794;175.246;2023-03-19T07:14:48;9.75;;;1.70;;
27722;SDS011;15123;-37.794;175.246;2023-03-19T07:17:20;10.57;;;1.70;;
27722;SDS011;15123;-37.794;175.246;2023-03-19T07:19:52;9.43;;;1.50;;
27722;SDS011;15123;-37.794;175.246;2023-03-19T07:22:23;11.07;;;1.55;;
27722;SDS011;15123;-37.794;175.246;2023-03-19T07:24:55;9.45;;;1.60;;
27722;SDS011;15123;-37.794;175.246;2023-03-19T07:27:27;12.13;;;1.67;;
27722;SDS011;15123;-37.794;175.246;2023-03-19T07:29:58;12.05;;;1.75;;
27722;SDS011;15123;-37.794;175.246;2023-03-19T07:32:30;10.82;;;1.48;;
27722;SDS011;15123;-37.794;175.246;2023-03-19T07:35:01;13.07;;;1.67;;
27722;SDS011;15123;-37.794;175.246;2023-03-19T07:37:33;9.90;;;1.50;;
27722;SDS011;15123;-37.794;175.246;2023-03-19T07:40:05;9.35;;;1.50;;
27722;SDS011;15123;-37.794;175.246;2023-03-19T07:42:36;10.43;;;1.40;;
27722;SDS011;15123;-37.794;175.246;2023-03-19T07:45:09;13.55;;;1.50;;
27722;SDS011;15123;-37.794;175.246;2023-03-19T07:47:40;10.20;;;1.30;;
27722;SDS011;15123;-37.794;175.246;2023-03-19T07:50:12;10.15;;;1.30;;
27722;SDS011;15123;-37.794;175.246;2023-03-19T07:55:17;9.65;;;1.30;;
27722;SDS011;15123;-37.794;175.246;2023-03-19T07:57:50;11.82;;;1.42;;
27722;SDS011;15123;-37.794;175.246;2023-03-19T08:00:21;8.18;;;1.35;;
27722;SDS011;15123;-37.794;175.246;2023-03-19T08:02:53;10.38;;;1.30;;
27722;SDS011;15123;-37.794;175.246;2023-03-19T08:05:24;13.13;;;1.50;;
27722;SDS011;15123;-37.794;175.246;2023-03-19T08:07:55;10.57;;;1.48;;
27722;SDS011;15123;-37.794;175.246;2023-03-19T08:12:58;9.82;;;1.30;;
27722;SDS011;15123;-37.794;175.246;2023-03-19T08:15:29;9.88;;;1.40;;
27722;SDS011;15123;-37.794;175.246;2023-03-19T08:20:32;8.90;;;1.20;;
27722;SDS011;15123;-37.794;175.246;2023-03-19T08:23:04;8.70;;;1.35;;
27722;SDS011;15123;-37.794;175.246;2023-03-19T08:25:36;9.55;;;1.48;;
27722;SDS011;15123;-37.794;175.246;2023-03-19T08:28:08;12.95;;;1.88;;
27722;SDS011;15123;-37.794;175.246;2023-03-19T08:30:39;10.52;;;1.80;;
27722;SDS011;15123;-37.794;175.246;2023-03-19T08:33:11;9.45;;;1.73;;
27722;SDS011;15123;-37.794;175.246;2023-03-19T08:35:43;9.63;;;1.83;;
27722;SDS011;15123;-37.794;175.246;2023-03-19T08:40:46;10.70;;;1.63;;
27722;SDS011;15123;-37.794;175.246;2023-03-19T08:43:17;11.63;;;1.42;;
27722;SDS011;15123;-37.794;175.246;2023-03-19T08:45:49;15.48;;;1.63;;
27722;SDS011;15123;-37.794;175.246;2023-03-19T08:50:55;8.48;;;1.88;;
27722;SDS011;15123;-37.794;175.246;2023-03-19T08:53:31;9.35;;;1.20;;
27722;SDS011;15123;-37.794;175.246;2023-03-19T08:56:04;11.70;;;1.35;;
27722;SDS011;15123;-37.794;175.246;2023-03-19T08:58:39;10.52;;;1.58;;
27722;SDS011;15123;-37.794;175.246;2023-03-19T09:01:12;9.13;;;1.50;;
27722;SDS011;15123;-37.794;175.246;2023-03-19T09:03:43;9.85;;;1.27;;
27722;SDS011;15123;-37.794;175.246;2023-03-19T09:06:15;8.98;;;1.50;;
27722;SDS011;15123;-37.794;175.246;2023-03-19T09:08:47;8.70;;;1.38;;
27722;SDS011;15123;-37.794;175.246;2023-03-19T09:11:19;9.93;;;1.75;;
27722;SDS011;15123;-37.794;175.246;2023-03-19T09:13:52;10.10;;;1.95;;
27722;SDS011;15123;-37.794;175.246;2023-03-19T09:16:23;9.50;;;1.42;;
27722;SDS011;15123;-37.794;175.246;2023-03-19T09:18:55;9.43;;;1.70;;
27722;SDS011;15123;-37.794;175.246;2023-03-19T09:21:26;8.77;;;1.15;;
27722;SDS011;15123;-37.794;175.246;2023-03-19T09:23:57;13.18;;;1.73;;
27722;SDS011;15123;-37.794;175.246;2023-03-19T09:26:29;10.38;;;1.73;;
27722;SDS011;15123;-37.794;175.246;2023-03-19T09:31:32;9.20;;;1.33;;
27722;SDS011;15123;-37.794;175.246;2023-03-19T09:36:35;11.68;;;1.48;;
27722;SDS011;15123;-37.794;175.246;2023-03-19T09:39:07;8.45;;;1.38;;
27722;SDS011;15123;-37.794;175.246;2023-03-19T09:44:36;10.45;;;1.60;;
27722;SDS011;15123;-37.794;175.246;2023-03-19T09:50:26;12.00;;;1.60;;
27722;SDS011;15123;-37.794;175.246;2023-03-19T09:53:23;8.68;;;1.55;;
27722;SDS011;15123;-37.794;175.246;2023-03-19T09:56:00;11.55;;;1.55;;
27722;SDS011;15123;-37.794;175.246;2023-03-19T10:01:03;9.25;;;1.80;;
27722;SDS011;15123;-37.794;175.246;2023-03-19T10:03:38;11.52;;;2.00;;
27722;SDS011;15123;-37.794;175.246;2023-03-19T10:06:29;11.85;;;1.65;;
27722;SDS011;15123;-37.794;175.246;2023-03-19T10:17:58;10.90;;;1.60;;
27722;SDS011;15123;-37.794;175.246;2023-03-19T10:25:55;8.75;;;1.55;;
27722;SDS011;15123;-37.794;175.246;2023-03-19T10:28:28;8.77;;;1.42;;
27722;SDS011;15123;-37.794;175.246;2023-03-19T10:34:10;14.48;;;3.13;;
27722;SDS011;15123;-37.794;175.246;2023-03-19T10:37:05;10.32;;;1.90;;
27722;SDS011;15123;-37.794;175.246;2023-03-19T10:39:43;9.32;;;1.75;;
27722;SDS011;15123;-37.794;175.246;2023-03-19T10:45:31;9.38;;;1.30;;
27722;SDS011;15123;-37.794;175.246;2023-03-19T10:48:11;10.40;;;1.60;;
27722;SDS011;15123;-37.794;175.246;2023-03-19T10:56:18;8.02;;;1.48;;
27722;SDS011;15123;-37.794;175.246;2023-03-19T11:01:38;12.90;;;2.40;;
27722;SDS011;15123;-37.794;175.246;2023-03-19T11:04:11;11.35;;;1.70;;
27722;SDS011;15123;-37.794;175.246;2023-03-19T11:06:48;7.43;;;1.33;;
27722;SDS011;15123;-37.794;175.246;2023-03-19T11:09:31;10.90;;;1.70;;
27722;SDS011;15123;-37.794;175.246;2023-03-19T11:12:06;11.15;;;2.30;;
27722;SDS011;15123;-37.794;175.246;2023-03-19T11:14:46;10.77;;;2.00;;
27722;SDS011;15123;-37.794;175.246;2023-03-19T11:20:54;11.18;;;1.40;;
27722;SDS011;15123;-37.794;175.246;2023-03-19T11:23:21;12.18;;;2.75;;
27722;SDS011;15123;-37.794;175.246;2023-03-19T11:25:53;13.50;;;2.40;;
27722;SDS011;15123;-37.794;175.246;2023-03-19T11:28:26;9.85;;;1.98;;
27722;SDS011;15123;-37.794;175.246;2023-03-19T11:34:16;12.52;;;2.00;;
27722;SDS011;15123;-37.794;175.246;2023-03-19T11:36:54;14.00;;;1.90;;
27722;SDS011;15123;-37.794;175.246;2023-03-19T11:47:33;14.77;;;2.17;;
27722;SDS011;15123;-37.794;175.246;2023-03-19T11:53:10;10.05;;;1.55;;
27722;SDS011;15123;-37.794;175.246;2023-03-19T11:55:57;11.13;;;1.67;;
27722;SDS011;15123;-37.794;175.246;2023-03-19T12:10:34;10.77;;;2.03;;
27722;SDS011;15123;-37.794;175.246;2023-03-19T12:16:11;11.73;;;2.00;;
27722;SDS011;15123;-37.794;175.246;2023-03-19T12:21:38;8.05;;;1.30;;
27722;SDS011;15123;-37.794;175.246;2023-03-19T12:30:22;7.87;;;1.50;;
27722;SDS011;15123;-37.794;175.246;2023-03-19T12:33:22;8.07;;;1.35;;
27722;SDS011;15123;-37.794;175.246;2023-03-19T12:36:02;10.10;;;1.80;;
27722;SDS011;15123;-37.794;175.246;2023-03-19T12:41:17;14.27;;;2.20;;
27722;SDS011;15123;-37.794;175.246;2023-03-19T12:46:45;10.15;;;2.20;;
27722;SDS011;15123;-37.794;175.246;2023-03-19T12:49:36;9.32;;;2.10;;
27722;SDS011;15123;-37.794;175.246;2023-03-19T12:54:59;9.48;;;2.13;;
27722;SDS011;15123;-37.794;175.246;2023-03-19T13:00:35;12.68;;;1.77;;
27722;SDS011;15123;-37.794;175.246;2023-03-19T13:03:21;10.48;;;1.95;;
27722;SDS011;15123;-37.794;175.246;2023-03-19T13:14:36;14.38;;;3.08;;
27722;SDS011;15123;-37.794;175.246;2023-03-19T13:17:25;11.77;;;2.67;;
27722;SDS011;15123;-37.794;175.246;2023-03-19T13:20:04;11.73;;;2.30;;
27722;SDS011;15123;-37.794;175.246;2023-03-19T13:23:04;9.68;;;2.40;;
27722;SDS011;15123;-37.794;175.246;2023-03-19T13:25:38;11.05;;;2.17;;
27722;SDS011;15123;-37.794;175.246;2023-03-19T13:28:17;11.95;;;2.00;;
27722;SDS011;15123;-37.794;175.246;2023-03-19T13:30:58;11.45;;;2.00;;
27722;SDS011;15123;-37.794;175.246;2023-03-19T13:33:35;9.00;;;1.48;;
27722;SDS011;15123;-37.794;175.246;2023-03-19T13:36:11;10.10;;;1.52;;
27722;SDS011;15123;-37.794;175.246;2023-03-19T13:38:44;8.40;;;1.67;;
27722;SDS011;15123;-37.794;175.246;2023-03-19T13:50:10;10.05;;;1.58;;
27722;SDS011;15123;-37.794;175.246;2023-03-19T13:56:03;9.35;;;1.90;;
27722;SDS011;15123;-37.794;175.246;2023-03-19T14:02:00;8.52;;;1.50;;
27722;SDS011;15123;-37.794;175.246;2023-03-19T14:04:33;8.90;;;1.60;;
27722;SDS011;15123;-37.794;175.246;2023-03-19T14:07:23;10.07;;;1.50;;
27722;SDS011;15123;-37.794;175.246;2023-03-19T14:12:40;8.02;;;1.33;;
27722;SDS011;15123;-37.794;175.246;2023-03-19T14:15:19;8.45;;;1.45;;
27722;SDS011;15123;-37.794;175.246;2023-03-19T14:20:24;8.95;;;1.38;;
27722;SDS011;15123;-37.794;175.246;2023-03-19T14:25:53;10.27;;;1.38;;
27722;SDS011;15123;-37.794;175.246;2023-03-19T14:28:59;8.00;;;1.40;;
27722;SDS011;15123;-37.794;175.246;2023-03-19T14:34:26;8.35;;;1.58;;
27722;SDS011;15123;-37.794;175.246;2023-03-19T14:43:10;7.72;;;1.23;;
27722;SDS011;15123;-37.794;175.246;2023-03-19T14:46:05;5.70;;;1.08;;
27722;SDS011;15123;-37.794;175.246;2023-03-19T14:48:45;6.57;;;1.00;;
27722;SDS011;15123;-37.794;175.246;2023-03-19T14:52:12;7.45;;;1.10;;
27722;SDS011;15123;-37.794;175.246;2023-03-19T14:54:52;7.47;;;1.35;;
27722;SDS011;15123;-37.794;175.246;2023-03-19T14:57:27;6.28;;;1.25;;
27722;SDS011;15123;-37.794;175.246;2023-03-19T15:00:03;6.78;;;1.10;;
27722;SDS011;15123;-37.794;175.246;2023-03-19T15:02:37;9.27;;;1.13;;
27722;SDS011;15123;-37.794;175.246;2023-03-19T15:08:11;6.13;;;1.05;;
27722;SDS011;15123;-37.794;175.246;2023-03-19T15:19:13;4.88;;;0.90;;
27722;SDS011;15123;-37.794;175.246;2023-03-19T15:21:49;8.13;;;1.00;;
27722;SDS011;15123;-37.794;175.246;2023-03-19T15:26:53;7.55;;;0.90;;
27722;SDS011;15123;-37.794;175.246;2023-03-19T15:29:31;6.43;;;1.00;;
27722;SDS011;15123;-37.794;175.246;2023-03-19T15:32:05;5.55;;;1.00;;
27722;SDS011;15123;-37.794;175.246;2023-03-19T15:34:39;6.90;;;1.00;;
27722;SDS011;15123;-37.794;175.246;2023-03-19T15:37:12;6.80;;;1.08;;
27722;SDS011;15123;-37.794;175.246;2023-03-19T15:39:46;7.22;;;1.10;;
27722;SDS011;15123;-37.794;175.246;2023-03-19T15:42:21;6.90;;;1.10;;
27722;SDS011;15123;-37.794;175.246;2023-03-19T15:44:54;7.57;;;1.00;;
27722;SDS011;15123;-37.794;175.246;2023-03-19T15:47:38;7.72;;;1.20;;
27722;SDS011;15123;-37.794;175.246;2023-03-19T15:50:32;6.57;;;1.13;;
27722;SDS011;15123;-37.794;175.246;2023-03-19T15:53:07;6.85;;;1.00;;
27722;SDS011;15123;-37.794;175.246;2023-03-19T15:55:41;4.72;;;1.00;;
27722;SDS011;15123;-37.794;175.246;2023-03-19T15:58:16;6.18;;;0.95;;
27722;SDS011;15123;-37.794;175.246;2023-03-19T16:00:53;5.78;;;1.27;;
27722;SDS011;15123;-37.794;175.246;2023-03-19T16:03:30;5.55;;;0.98;;
27722;SDS011;15123;-37.794;175.246;2023-03-19T16:06:05;5.57;;;0.77;;
27722;SDS011;15123;-37.794;175.246;2023-03-19T16:08:50;5.05;;;0.90;;
27722;SDS011;15123;-37.794;175.246;2023-03-19T16:11:35;5.65;;;0.90;;
27722;SDS011;15123;-37.794;175.246;2023-03-19T16:16:48;1.80;;;0.50;;
27722;SDS011;15123;-37.794;175.246;2023-03-19T16:19:33;3.03;;;0.55;;
27722;SDS011;15123;-37.794;175.246;2023-03-19T16:22:13;2.42;;;0.50;;
27722;SDS011;15123;-37.794;175.246;2023-03-19T16:24:50;4.50;;;0.70;;
27722;SDS011;15123;-37.794;175.246;2023-03-19T16:27:32;3.15;;;0.70;;
27722;SDS011;15123;-37.794;175.246;2023-03-19T16:30:24;4.13;;;1.00;;
27722;SDS011;15123;-37.794;175.246;2023-03-19T16:33:05;5.18;;;0.70;;
27722;SDS011;15123;-37.794;175.246;2023-03-19T16:35:41;3.13;;;0.80;;
27722;SDS011;15123;-37.794;175.246;2023-03-19T16:38:24;3.28;;;0.70;;
27722;SDS011;15123;-37.794;175.246;2023-03-19T16:41:22;3.85;;;0.80;;
27722;SDS011;15123;-37.794;175.246;2023-03-19T16:44:18;4.07;;;0.65;;
27722;SDS011;15123;-37.794;175.246;2023-03-19T16:46:58;3.65;;;0.60;;
27722;SDS011;15123;-37.794;175.246;2023-03-19T16:49:31;4.28;;;0.80;;
27722;SDS011;15123;-37.794;175.246;2023-03-19T16:52:02;4.53;;;0.70;;
27722;SDS011;15123;-37.794;175.246;2023-03-19T16:54:34;4.70;;;0.80;;
27722;SDS011;15123;-37.794;175.246;2023-03-19T16:57:07;5.25;;;0.90;;
27722;SDS011;15123;-37.794;175.246;2023-03-19T16:59:39;5.22;;;0.80;;
27722;SDS011;15123;-37.794;175.246;2023-03-19T17:04:43;4.88;;;0.90;;
27722;SDS011;15123;-37.794;175.246;2023-03-19T17:07:15;5.32;;;0.98;;
27722;SDS011;15123;-37.794;175.246;2023-03-19T17:09:47;5.50;;;1.08;;
27722;SDS011;15123;-37.794;175.246;2023-03-19T17:12:19;4.65;;;0.98;;
27722;SDS011;15123;-37.794;175.246;2023-03-19T17:14:50;6.00;;;1.17;;
27722;SDS011;15123;-37.794;175.246;2023-03-19T17:17:22;4.55;;;0.90;;
27722;SDS011;15123;-37.794;175.246;2023-03-19T17:19:55;4.15;;;0.90;;
27722;SDS011;15123;-37.794;175.246;2023-03-19T17:22:27;7.78;;;1.30;;
27722;SDS011;15123;-37.794;175.246;2023-03-19T17:27:30;6.63;;;1.00;;
27722;SDS011;15123;-37.794;175.246;2023-03-19T17:30:02;3.90;;;1.05;;
27722;SDS011;15123;-37.794;175.246;2023-03-19T17:32:33;4.05;;;0.88;;
27722;SDS011;15123;-37.794;175.246;2023-03-19T17:37:43;4.72;;;1.00;;
27722;SDS011;15123;-37.794;175.246;2023-03-19T17:40:19;3.40;;;0.80;;
27722;SDS011;15123;-37.794;175.246;2023-03-19T17:42:53;4.57;;;1.08;;
27722;SDS011;15123;-37.794;175.246;2023-03-19T17:45:26;4.60;;;0.98;;
27722;SDS011;15123;-37.794;175.246;2023-03-19T17:47:58;4.53;;;1.02;;
27722;SDS011;15123;-37.794;175.246;2023-03-19T17:50:30;8.52;;;1.40;;
27722;SDS011;15123;-37.794;175.246;2023-03-19T17:53:02;7.03;;;1.52;;
27722;SDS011;15123;-37.794;175.246;2023-03-19T17:55:34;6.05;;;1.40;;
27722;SDS011;15123;-37.794;175.246;2023-03-19T17:58:11;13.38;;;1.33;;
27722;SDS011;15123;-37.794;175.246;2023-03-19T18:00:46;14.70;;;1.60;;
27722;SDS011;15123;-37.794;175.246;2023-03-19T18:03:22;14.68;;;1.25;;
27722;SDS011;15123;-37.794;175.246;2023-03-19T18:05:54;7.90;;;1.10;;
27722;SDS011;15123;-37.794;175.246;2023-03-19T18:08:27;9.25;;;1.17;;
27722;SDS011;15123;-37.794;175.246;2023-03-19T18:10:58;5.55;;;1.10;;
27722;SDS011;15123;-37.794;175.246;2023-03-19T18:13:30;5.57;;;1.35;;
27722;SDS011;15123;-37.794;175.246;2023-03-19T18:16:02;7.45;;;1.42;;
27722;SDS011;15123;-37.794;175.246;2023-03-19T18:18:34;6.60;;;1.70;;
27722;SDS011;15123;-37.794;175.246;2023-03-19T18:21:07;13.18;;;1.80;;
27722;SDS011;15123;-37.794;175.246;2023-03-19T18:23:43;16.48;;;1.85;;
27722;SDS011;15123;-37.794;175.246;2023-03-19T18:26:15;8.25;;;1.50;;
27722;SDS011;15123;-37.794;175.246;2023-03-19T18:28:48;7.78;;;1.65;;
27722;SDS011;15123;-37.794;175.246;2023-03-19T18:31:21;10.77;;;1.70;;
27722;SDS011;15123;-37.794;175.246;2023-03-19T18:33:55;9.05;;;2.20;;
27722;SDS011;15123;-37.794;175.246;2023-03-19T18:36:30;14.32;;;2.30;;
27722;SDS011;15123;-37.794;175.246;2023-03-19T18:39:02;12.27;;;2.10;;
27722;SDS011;15123;-37.794;175.246;2023-03-19T18:41:45;7.75;;;2.00;;
27722;SDS011;15123;-37.794;175.246;2023-03-19T18:44:16;8.90;;;2.20;;